createdAt,value
2023-02-22T20:26:55.630Z,81.44
2023-02-22T20:29:29.368Z,81.95
2023-02-22T20:32:02.155Z,81.37
2023-02-22T20:34:32.356Z,81.54
2023-02-22T20:37:00.591Z,81.53
2023-02-22T20:39:27.816Z,81.71
2023-02-22T20:41:54.773Z,82.09
2023-02-22T20:44:22.182Z,81.82
2023-02-22T20:46:49.289Z,82.94
2023-02-22T20:49:19.340Z,82.87
2023-02-22T20:51:48.212Z,82.32
2023-02-22T20:54:16.929Z,82.21
2023-02-22T20:56:46.125Z,82.28
2023-02-22T20:59:16.302Z,82.72
2023-02-22T21:01:43.784Z,82.42
2023-02-22T21:04:11.443Z,81.86
2023-02-22T21:06:42.619Z,82.06
2023-02-22T21:09:16.253Z,81.47
2023-02-22T21:11:43.628Z,82.98
2023-02-22T21:14:16.673Z,81.65
2023-02-22T21:16:46.551Z,82.14
2023-02-22T21:19:27.727Z,81.96
2023-02-22T21:21:59.685Z,82.67
2023-02-22T21:24:28.976Z,83.08
2023-02-22T21:26:59.040Z,82.29
2023-02-22T21:29:27.548Z,82.49
2023-02-22T21:31:54.793Z,82.56
2023-02-22T21:34:22.349Z,82.77
2023-02-22T21:36:50.465Z,82.48
2023-02-22T21:39:18.050Z,82.69
2023-02-22T21:41:52.075Z,82.93
2023-02-22T21:44:21.535Z,83.97
2023-02-22T21:46:49.630Z,82.52
2023-02-22T21:49:17.889Z,83.89
2023-02-22T21:51:44.905Z,83.52
2023-02-22T21:54:13.092Z,82.83
2023-02-22T21:56:42.545Z,83.74
2023-02-22T21:59:18.837Z,83.69
2023-02-22T22:01:50.773Z,82.99
2023-02-22T22:04:21.675Z,84.34
2023-02-22T22:06:51.594Z,83.38
2023-02-22T22:09:19.812Z,84.86
2023-02-22T22:11:53.283Z,84.57
2023-02-22T22:14:23.136Z,84.32
2023-02-22T22:16:58.178Z,84.76
2023-02-22T22:19:29.062Z,85.46
2023-02-22T22:21:57.172Z,85.69
2023-02-22T22:24:25.619Z,85.53
2023-02-22T22:26:55.553Z,85.72
2023-02-22T22:29:24.582Z,84.97
2023-02-22T22:31:52.326Z,85.67
2023-02-22T22:34:19.498Z,85.54
2023-02-22T22:36:46.894Z,85.59
2023-02-22T22:39:13.992Z,86.79
2023-02-22T22:41:45.379Z,87.72
2023-02-22T22:44:15.245Z,88.10
2023-02-22T22:46:43.871Z,88.97
2023-02-22T22:49:13.280Z,89.82
2023-02-22T22:51:41.150Z,90.62
2023-02-22T22:54:09.831Z,92.26
2023-02-22T22:56:38.720Z,92.54
2023-02-22T22:59:09.543Z,93.99
2023-02-22T23:01:44.537Z,94.68
2023-02-22T23:04:16.226Z,94.58
2023-02-22T23:06:52.069Z,95.71
2023-02-22T23:09:25.656Z,95.55
2023-02-22T23:12:08.837Z,96.25
2023-02-22T23:14:39.448Z,96.95
2023-02-22T23:17:14.020Z,97.84
2023-02-22T23:19:42.866Z,98.75
2023-02-22T23:22:09.716Z,99.66
2023-02-22T23:24:37.237Z,99.31
2023-02-22T23:27:10.609Z,100.00
2023-02-22T23:29:40.442Z,100.00
2023-02-22T23:32:08.012Z,100.00
2023-02-22T23:34:36.391Z,100.00
2023-02-22T23:37:03.751Z,100.00
2023-02-22T23:39:30.633Z,100.00
2023-02-22T23:42:03.169Z,100.00
2023-02-22T23:44:30.134Z,100.00
2023-02-22T23:46:57.157Z,100.00
2023-02-22T23:49:27.428Z,100.00
2023-02-22T23:51:54.696Z,100.00
2023-02-22T23:54:24.372Z,100.00
2023-02-22T23:56:57.761Z,100.00
2023-02-22T23:59:26.887Z,100.00
